Time;durP1;ratioP1;P1;durP2;ratioP2;P2;SDS_P1;SDS_P2;PMS_P1;PMS_P2;Temp;Humidity;BMP_temperature;BMP_pressure;BME280_temperature;BME280_humidity;BME280_pressure;Samples;Min_cycle;Max_cycle;Signal;HPM_P1;HPM_P2
2021/06/03 00:00:44;;;;;;;4.47;4.07;;;18.30;77.20;;;;;;6225141;28;20064;-78
2021/06/03 00:03:47;;;;;;;2.63;2.42;;;18.30;77.60;;;;;;6224013;28;20073;-79
2021/06/03 00:06:48;;;;;;;4.63;3.00;;;18.30;77.80;;;;;;6225312;28;20492;-79
2021/06/03 00:09:49;;;;;;;4.80;3.83;;;18.30;77.60;;;;;;6224325;28;20565;-78
2021/06/03 00:12:51;;;;;;;3.92;3.20;;;18.40;77.80;;;;;;6224993;28;20104;-78
2021/06/03 00:15:54;;;;;;;3.58;2.88;;;18.40;77.80;;;;;;6224406;28;20503;-79
2021/06/03 00:18:57;;;;;;;5.38;3.55;;;18.50;77.60;;;;;;6224841;28;20050;-78
2021/06/03 00:21:58;;;;;;;6.30;2.83;;;18.50;77.80;;;;;;6225025;28;20097;-78
2021/06/03 00:24:59;;;;;;;4.35;2.90;;;18.60;77.80;;;;;;6224388;28;20130;-78
2021/06/03 00:28:01;;;;;;;7.95;3.85;;;18.60;77.80;;;;;;6224323;28;20384;-78
2021/06/03 00:31:02;;;;;;;4.38;3.13;;;18.70;77.70;;;;;;6224083;28;20082;-78
2021/06/03 00:34:05;;;;;;;4.35;3.03;;;18.70;77.70;;;;;;6225166;28;20049;-78
2021/06/03 00:37:06;;;;;;;4.75;3.33;;;18.80;77.70;;;;;;6224010;28;20072;-77
2021/06/03 00:40:11;;;;;;;2.95;2.65;;;18.70;77.80;;;;;;6223809;28;20626;-77
2021/06/03 00:43:13;;;;;;;3.85;3.53;;;18.80;78.00;;;;;;6226961;28;20053;-79
2021/06/03 00:46:14;;;;;;;4.88;2.92;;;18.70;78.20;;;;;;6227449;28;20124;-79
2021/06/03 00:49:17;;;;;;;3.75;3.00;;;18.70;78.20;;;;;;6223861;28;20072;-78
2021/06/03 00:52:18;;;;;;;3.60;3.30;;;18.70;78.50;;;;;;6219424;28;20092;-78
2021/06/03 00:55:20;;;;;;;5.88;3.00;;;18.70;78.60;;;;;;6223746;28;20688;-77
2021/06/03 00:58:22;;;;;;;4.38;2.92;;;18.70;78.80;;;;;;6223736;28;20136;-78
2021/06/03 01:01:23;;;;;;;4.57;3.65;;;18.70;79.10;;;;;;6223526;28;20125;-79
2021/06/03 01:04:26;;;;;;;4.40;4.07;;;18.70;79.10;;;;;;6222961;28;20133;-78
2021/06/03 01:07:27;;;;;;;7.78;3.97;;;18.70;79.20;;;;;;6223648;28;20695;-78
2021/06/03 01:10:32;;;;;;;4.18;3.78;;;18.70;79.20;;;;;;6224666;28;20115;-79
2021/06/03 01:13:41;;;;;;;5.05;3.75;;;18.80;79.20;;;;;;6224430;28;20133;-79
2021/06/03 01:16:43;;;;;;;7.18;4.40;;;18.80;79.30;;;;;;6224880;28;20434;-78
2021/06/03 01:19:47;;;;;;;5.25;4.07;;;18.80;79.40;;;;;;6224572;28;20120;-78
2021/06/03 01:22:59;;;;;;;6.43;5.35;;;18.80;79.60;;;;;;6223869;28;20140;-78
2021/06/03 01:26:03;;;;;;;4.38;4.00;;;18.80;79.70;;;;;;6224650;28;20077;-78
2021/06/03 01:29:04;;;;;;;5.55;3.88;;;18.80;79.90;;;;;;6240974;28;20073;-78
2021/06/03 01:32:06;;;;;;;5.30;4.05;;;18.70;80.10;;;;;;6248337;28;20552;-79
2021/06/03 01:35:10;;;;;;;4.40;4.05;;;18.70;80.50;;;;;;6248573;28;20445;-78
2021/06/03 01:38:15;;;;;;;7.80;4.10;;;18.70;80.80;;;;;;6248980;28;20447;-80
2021/06/03 01:41:18;;;;;;;3.90;3.60;;;18.70;80.90;;;;;;6248851;28;20538;-79
2021/06/03 01:44:20;;;;;;;5.32;3.50;;;18.60;81.20;;;;;;6248995;28;20511;-79
2021/06/03 01:47:21;;;;;;;6.53;4.15;;;18.60;81.50;;;;;;6249379;28;20049;-79
2021/06/03 01:50:24;;;;;;;4.35;3.95;;;18.50;81.70;;;;;;6248782;28;20088;-78
2021/06/03 01:53:27;;;;;;;4.60;4.20;;;18.50;82.00;;;;;;6247954;28;20169;-79
2021/06/03 01:56:30;;;;;;;5.25;3.90;;;18.40;82.50;;;;;;6248550;28;20071;-79
2021/06/03 01:59:33;;;;;;;6.32;4.15;;;18.40;82.70;;;;;;6248031;28;20187;-79
2021/06/03 02:02:34;;;;;;;5.40;4.28;;;18.30;83.00;;;;;;6249186;28;20052;-79
2021/06/03 02:05:35;;;;;;;5.93;5.35;;;18.30;83.80;;;;;;6248802;28;20049;-79
2021/06/03 02:08:37;;;;;;;4.68;4.03;;;18.30;83.50;;;;;;6248463;28;20144;-80
2021/06/03 02:11:41;;;;;;;4.55;3.80;;;18.20;83.80;;;;;;6249081;28;20041;-78
2021/06/03 02:14:44;;;;;;;5.80;4.35;;;18.20;84.70;;;;;;6248438;28;20474;-78
2021/06/03 02:17:47;;;;;;;5.72;4.82;;;18.20;84.10;;;;;;6247799;28;20124;-79
2021/06/03 02:20:51;;;;;;;6.43;4.53;;;18.10;84.60;;;;;;6247597;28;20049;-78
2021/06/03 02:23:54;;;;;;;6.72;4.90;;;18.10;85.30;;;;;;6247696;28;20104;-78
2021/06/03 02:26:57;;;;;;;4.57;3.97;;;18.10;85.00;;;;;;6248113;28;20586;-78
2021/06/03 02:29:59;;;;;;;5.85;5.18;;;17.90;84.80;;;;;;6223300;28;20129;-78
2021/06/03 02:33:00;;;;;;;4.93;4.43;;;18.00;85.60;;;;;;6223538;28;20569;-79
2021/06/03 02:36:03;;;;;;;5.80;4.72;;;18.00;85.90;;;;;;6231888;28;20069;-80
2021/06/03 02:39:06;;;;;;;4.85;4.43;;;18.00;86.00;;;;;;6247377;28;20506;-79
2021/06/03 02:42:09;;;;;;;6.07;5.13;;;18.00;86.10;;;;;;6248430;28;20061;-79
2021/06/03 02:45:14;;;;;;;4.97;4.50;;;18.00;86.10;;;;;;6247841;28;20053;-79
2021/06/03 02:48:15;;;;;;;5.57;4.78;;;18.10;86.20;;;;;;6248186;28;20418;-78
2021/06/03 02:51:17;;;;;;;5.90;5.05;;;18.10;86.20;;;;;;6247432;28;20084;-79
2021/06/03 02:54:19;;;;;;;6.63;5.93;;;18.10;86.50;;;;;;6247896;28;20451;-78
2021/06/03 02:57:22;;;;;;;7.72;4.43;;;18.20;86.40;;;;;;6247665;28;20614;-79
2021/06/03 03:00:25;;;;;;;8.43;6.07;;;18.20;87.20;;;;;;6247356;28;20149;-79
2021/06/03 03:03:26;;;;;;;5.65;5.15;;;18.20;86.60;;;;;;6249267;28;20049;-79
2021/06/03 03:06:27;;;;;;;5.85;5.05;;;18.20;86.70;;;;;;6252813;28;20510;-79
2021/06/03 03:09:29;;;;;;;4.63;4.22;;;18.20;86.70;;;;;;6251766;28;20065;-79
2021/06/03 03:12:32;;;;;;;5.80;4.60;;;18.20;86.70;;;;;;6252701;28;20069;-79
2021/06/03 03:15:34;;;;;;;4.60;4.10;;;18.20;86.90;;;;;;6251940;28;20069;-78
2021/06/03 03:18:35;;;;;;;6.15;4.55;;;18.20;86.90;;;;;;6252340;28;20498;-80
2021/06/03 03:21:37;;;;;;;5.45;4.50;;;18.20;87.10;;;;;;6253020;28;20144;-79
2021/06/03 03:24:38;;;;;;;5.65;4.50;;;18.20;87.10;;;;;;6252021;28;20073;-79
2021/06/03 03:27:43;;;;;;;5.43;4.07;;;18.20;87.10;;;;;;6250860;28;20044;-78
2021/06/03 03:30:44;;;;;;;5.95;4.75;;;18.20;87.20;;;;;;6251185;28;20497;-78
2021/06/03 03:33:46;;;;;;;4.63;3.97;;;18.10;87.30;;;;;;6250885;28;20119;-77
2021/06/03 03:36:48;;;;;;;4.65;3.97;;;18.20;87.50;;;;;;6250701;28;20048;-78
2021/06/03 03:39:49;;;;;;;5.85;4.43;;;18.10;87.60;;;;;;6250518;28;20075;-79
2021/06/03 03:42:52;;;;;;;5.57;4.10;;;18.20;87.70;;;;;;6251865;28;20160;-77
2021/06/03 03:45:53;;;;;;;6.65;4.60;;;18.20;88.00;;;;;;6250917;28;20045;-78
2021/06/03 03:48:54;;;;;;;5.70;5.15;;;18.10;88.80;;;;;;6250935;28;20079;-78
2021/06/03 03:51:56;;;;;;;5.07;4.50;;;18.00;88.80;;;;;;6251508;28;20127;-78
2021/06/03 03:54:59;;;;;;;4.47;4.07;;;17.90;89.10;;;;;;6251609;28;20510;-78
2021/06/03 03:58:03;;;;;;;5.40;4.57;;;17.80;89.40;;;;;;6226636;28;20079;-79
2021/06/03 04:01:04;;;;;;;7.03;4.93;;;17.80;89.60;;;;;;6243970;28;20136;-80
2021/06/03 04:04:58;;;;;;;5.88;5.03;;;17.70;90.00;;;;;;6251746;28;20091;-79
2021/06/03 04:08:00;;;;;;;4.88;4.18;;;17.70;89.90;;;;;;6251509;28;20068;-79
2021/06/03 04:11:02;;;;;;;6.00;5.43;;;17.70;90.10;;;;;;6255806;28;20045;-79
2021/06/03 04:14:04;;;;;;;8.13;4.63;;;17.60;90.20;;;;;;6266672;28;20109;-79
2021/06/03 04:17:06;;;;;;;6.68;5.47;;;17.60;90.20;;;;;;6257039;28;20046;-79
2021/06/03 04:20:10;;;;;;;5.22;4.82;;;17.60;90.30;;;;;;6252401;28;20049;-78
2021/06/03 04:23:11;;;;;;;6.20;4.90;;;17.60;90.40;;;;;;6251691;28;20083;-79
2021/06/03 04:26:12;;;;;;;7.05;4.80;;;17.50;90.60;;;;;;6252400;28;20049;-78
2021/06/03 04:29:15;;;;;;;7.30;5.38;;;17.50;90.70;;;;;;6251820;28;20124;-78
2021/06/03 04:32:16;;;;;;;4.88;4.35;;;17.50;90.80;;;;;;6252225;28;20056;-80
2021/06/03 04:35:21;;;;;;;5.47;4.97;;;17.40;90.90;;;;;;6252170;28;20076;-79
2021/06/03 04:38:22;;;;;;;5.80;5.22;;;17.40;91.10;;;;;;6253058;28;20128;-78
2021/06/03 04:41:23;;;;;;;4.72;4.32;;;17.40;91.10;;;;;;6250941;28;20562;-79
2021/06/03 04:44:26;;;;;;;6.60;4.53;;;17.40;91.00;;;;;;6251599;28;20072;-78
2021/06/03 04:47:27;;;;;;;5.55;4.88;;;17.50;90.90;;;;;;6252216;28;20080;-78
2021/06/03 04:50:29;;;;;;;7.40;5.32;;;17.50;90.80;;;;;;6252361;28;20088;-78
2021/06/03 04:53:30;;;;;;;9.40;5.18;;;17.50;90.70;;;;;;6250796;28;20069;-78
2021/06/03 04:56:32;;;;;;;7.80;5.03;;;17.50;90.80;;;;;;6279558;22;20045;-76
2021/06/03 04:59:34;;;;;;;8.63;5.50;;;17.40;90.90;;;;;;6292564;28;20496;-76
2021/06/03 05:02:36;;;;;;;5.38;4.88;;;17.40;91.20;;;;;;6273786;28;20131;-77
2021/06/03 05:05:38;;;;;;;5.70;5.05;;;17.30;91.60;;;;;;6272907;28;20123;-76
2021/06/03 05:08:39;;;;;;;8.13;4.80;;;17.30;91.50;;;;;;6272766;28;20076;-76
2021/06/03 05:11:41;;;;;;;4.95;4.45;;;17.30;91.60;;;;;;6272831;28;20053;-76
2021/06/03 05:14:43;;;;;;;4.78;4.38;;;17.40;91.50;;;;;;6273219;28;20084;-76
2021/06/03 05:17:45;;;;;;;4.95;4.55;;;17.50;91.50;;;;;;6273005;28;20167;-77
2021/06/03 05:20:47;;;;;;;6.38;4.93;;;17.70;91.50;;;;;;6272082;28;20139;-76
2021/06/03 05:23:48;;;;;;;5.28;4.72;;;17.90;91.00;;;;;;6272369;28;20657;-76
2021/06/03 05:26:50;;;;;;;8.10;5.53;;;18.20;90.60;;;;;;6272277;28;20131;-76
2021/06/03 05:29:52;;;;;;;5.22;4.80;;;18.60;90.10;;;;;;6272919;28;20041;-76
2021/06/03 05:32:54;;;;;;;5.35;4.85;;;18.90;88.80;;;;;;6272701;28;20079;-76
2021/06/03 05:35:55;;;;;;;6.72;5.43;;;19.30;87.30;;;;;;6272223;28;20049;-76
2021/06/03 05:38:56;;;;;;;5.65;4.50;;;19.60;86.10;;;;;;6272437;28;20128;-76
2021/06/03 05:41:58;;;;;;;4.95;4.55;;;20.10;85.40;;;;;;6272119;28;20052;-76
2021/06/03 05:45:01;;;;;;;5.18;4.10;;;20.40;83.40;;;;;;6272415;28;20053;-76
2021/06/03 05:48:03;;;;;;;9.80;4.97;;;20.80;81.40;;;;;;6271790;28;20063;-76
2021/06/03 05:51:05;;;;;;;7.05;3.80;;;21.20;79.80;;;;;;6271544;28;20534;-76
2021/06/03 05:54:06;;;;;;;4.50;4.13;;;21.80;78.00;;;;;;6272347;28;20048;-76
2021/06/03 05:57:08;;;;;;;5.68;4.05;;;22.40;75.80;;;;;;6272076;28;20133;-76
2021/06/03 06:00:13;;;;;;;3.88;3.55;;;23.10;72.40;;;;;;6273891;28;20139;-78
2021/06/03 06:03:17;;;;;;;5.63;3.88;;;23.80;70.30;;;;;;6270314;28;20621;-77
2021/06/03 06:06:24;;;;;;;3.70;3.33;;;;;;;;;;6263655;28;20521;-77
2021/06/03 06:09:25;;;;;;;3.40;3.13;;;26.00;62.70;;;;;;6273499;28;20049;-77
2021/06/03 06:12:27;;;;;;;3.83;3.53;;;27.00;59.50;;;;;;6273266;28;20132;-77
2021/06/03 06:15:31;;;;;;;4.43;3.10;;;26.90;58.50;;;;;;6273532;28;20124;-76
2021/06/03 06:18:32;;;;;;;4.30;2.80;;;26.60;58.90;;;;;;6271605;28;20198;-77
2021/06/03 06:21:35;;;;;;;6.07;3.83;;;26.90;58.00;;;;;;6271040;28;20070;-76
2021/06/03 06:24:37;;;;;;;3.20;2.55;;;27.90;56.00;;;;;;6271580;28;20049;-77
2021/06/03 06:27:39;;;;;;;6.95;2.90;;;28.50;53.90;;;;;;6271095;28;20414;-76
2021/06/03 06:30:42;;;;;;;3.80;2.80;;;28.70;52.60;;;;;;6271424;28;20131;-76
2021/06/03 06:33:44;;;;;;;11.82;2.90;;;28.90;52.00;;;;;;6271098;28;20068;-77
2021/06/03 06:36:45;;;;;;;5.53;3.55;;;28.70;51.90;;;;;;6271779;28;20068;-77
2021/06/03 06:39:46;;;;;;;4.70;3.03;;;28.00;53.30;;;;;;6275725;28;20068;-76
2021/06/03 06:42:53;;;;;;;3.30;3.00;;;27.40;54.60;;;;;;6276687;28;20049;-76
2021/06/03 06:45:56;;;;;;;6.03;3.45;;;27.50;54.40;;;;;;6275921;28;20053;-77
2021/06/03 06:48:57;;;;;;;4.40;2.78;;;28.10;52.80;;;;;;6275731;28;20045;-76
2021/06/03 06:51:59;;;;;;;4.68;2.55;;;28.40;52.60;;;;;;6275904;28;20087;-77
2021/06/03 06:55:00;;;;;;;3.30;3.00;;;28.70;51.80;;;;;;6276229;28;20518;-77
2021/06/03 06:58:01;;;;;;;5.40;2.83;;;28.90;51.30;;;;;;6275898;28;20044;-76
2021/06/03 07:01:04;;;;;;;3.70;2.80;;;28.60;51.60;;;;;;6275459;28;20080;-77
2021/06/03 07:04:05;;;;;;;2.30;2.10;;;28.40;51.70;;;;;;6275955;28;20124;-76
2021/06/03 07:07:06;;;;;;;4.90;2.40;;;28.30;51.60;;;;;;6275277;28;20093;-76
2021/06/03 07:10:09;;;;;;;3.15;2.75;;;28.50;52.10;;;;;;6275696;28;20137;-76
2021/06/03 07:13:11;;;;;;;3.58;2.63;;;28.60;50.60;;;;;;6275412;28;20130;-77
2021/06/03 07:16:16;;;;;;;4.63;2.30;;;28.50;51.30;;;;;;6275321;28;20045;-77
2021/06/03 07:19:18;;;;;;;3.88;2.78;;;28.50;51.70;;;;;;6274691;28;20106;-76
2021/06/03 07:22:19;;;;;;;3.50;2.50;;;28.50;51.50;;;;;;6275668;28;20522;-77
2021/06/03 07:25:24;;;;;;;3.10;2.88;;;28.40;51.70;;;;;;6275004;28;20498;-76
2021/06/03 07:28:26;;;;;;;4.60;3.25;;;28.30;51.80;;;;;;6274955;28;20095;-76
2021/06/03 07:31:28;;;;;;;3.45;2.60;;;28.40;51.70;;;;;;6274904;28;20128;-76
2021/06/03 07:34:30;;;;;;;7.03;3.17;;;28.80;51.50;;;;;;6275127;28;20053;-76
2021/06/03 07:37:34;;;;;;;2.88;2.55;;;29.30;50.70;;;;;;6274760;28;20124;-76
2021/06/03 07:40:37;;;;;;;5.15;2.17;;;29.30;49.30;;;;;;6274718;28;20055;-77
2021/06/03 07:43:39;;;;;;;3.17;2.25;;;29.50;49.40;;;;;;6274720;28;20175;-76
2021/06/03 07:46:42;;;;;;;3.22;2.90;;;29.80;49.30;;;;;;6274811;28;20526;-77
2021/06/03 07:49:43;;;;;;;3.67;2.72;;;29.80;48.70;;;;;;6273159;28;20127;-77
2021/06/03 07:52:45;;;;;;;2.90;2.63;;;29.90;48.60;;;;;;6274413;28;20146;-77
2021/06/03 07:55:46;;;;;;;2.90;2.70;;;30.10;48.40;;;;;;6274460;28;20414;-76
2021/06/03 07:58:47;;;;;;;5.55;2.65;;;30.50;47.80;;;;;;6274443;28;20139;-77
2021/06/03 08:01:50;;;;;;;3.03;2.58;;;30.90;47.20;;;;;;6274282;28;20072;-76
2021/06/03 08:04:52;;;;;;;2.22;2.03;;;31.10;46.10;;;;;;6273837;28;20056;-77
2021/06/03 08:07:54;;;;;;;5.10;2.45;;;30.90;46.80;;;;;;6274236;28;20055;-76
2021/06/03 08:10:55;;;;;;;3.97;2.47;;;31.10;46.50;;;;;;6274174;28;20060;-76
2021/06/03 08:13:57;;;;;;;3.08;2.78;;;31.50;45.00;;;;;;6273625;28;20529;-77
2021/06/03 08:16:59;;;;;;;5.35;2.67;;;31.40;44.70;;;;;;6273599;28;20540;-77
2021/06/03 08:20:01;;;;;;;2.95;2.65;;;31.30;44.80;;;;;;6273608;28;20067;-76
2021/06/03 08:23:03;;;;;;;3.08;2.65;;;31.80;44.40;;;;;;6273780;28;20469;-76
2021/06/03 08:26:05;;;;;;;2.20;1.73;;;32.20;43.80;;;;;;6274163;28;20491;-77
2021/06/03 08:29:06;;;;;;;3.03;1.92;;;32.70;42.40;;;;;;6273521;28;20055;-76
2021/06/03 08:32:09;;;;;;;5.88;3.28;;;33.20;41.80;;;;;;6273817;28;20077;-78
2021/06/03 08:35:14;;;;;;;2.05;1.77;;;33.20;41.90;;;;;;6274120;28;20502;-77
2021/06/03 08:38:16;;;;;;;2.08;1.95;;;33.50;40.80;;;;;;6274659;28;20399;-77
2021/06/03 08:41:17;;;;;;;2.10;1.90;;;33.60;40.80;;;;;;6273803;28;20052;-77
2021/06/03 08:44:18;;;;;;;1.88;1.75;;;33.80;40.00;;;;;;6274754;28;20520;-78
2021/06/03 08:47:21;;;;;;;2.20;1.95;;;34.40;39.00;;;;;;6273408;28;20072;-77
2021/06/03 08:50:24;;;;;;;2.90;2.05;;;34.40;38.80;;;;;;6273223;28;20463;-77
2021/06/03 08:53:25;;;;;;;5.18;2.63;;;34.60;38.80;;;;;;6261369;28;20159;-77
2021/06/03 08:56:28;;;;;;;2.65;2.45;;;34.80;38.70;;;;;;6272965;28;20051;-77
2021/06/03 08:59:29;;;;;;;2.33;2.13;;;35.20;38.30;;;;;;6272619;28;20110;-77
2021/06/03 09:02:33;;;;;;;6.32;2.72;;;34.90;38.30;;;;;;6273763;28;20059;-77
2021/06/03 09:05:35;;;;;;;3.75;2.00;;;33.80;40.00;;;;;;6272535;28;20056;-77
2021/06/03 09:08:38;;;;;;;2.75;2.00;;;33.40;41.00;;;;;;6272382;28;20045;-77
2021/06/03 09:11:40;;;;;;;4.63;2.92;;;34.00;40.40;;;;;;6272941;28;20087;-78
2021/06/03 09:14:42;;;;;;;2.78;2.25;;;34.60;38.90;;;;;;6274011;28;20055;-77
2021/06/03 09:17:47;;;;;;;3.67;2.97;;;34.50;38.60;;;;;;6272696;28;20045;-77
2021/06/03 09:20:49;;;;;;;3.30;1.90;;;33.60;39.50;;;;;;6273359;28;20072;-78
2021/06/03 09:23:58;;;;;;;2.55;1.73;;;32.30;41.80;;;;;;6273739;28;20134;-77
2021/06/03 09:27:01;;;;;;;6.60;2.03;;;31.50;43.10;;;;;;6273765;28;20052;-78
2021/06/03 09:30:03;;;;;;;4.88;2.17;;;31.00;43.00;;;;;;6272628;28;20052;-77
2021/06/03 09:33:07;;;;;;;1.63;1.52;;;30.60;43.70;;;;;;6272126;28;20087;-77
2021/06/03 09:36:11;;;;;;;4.93;2.28;;;30.20;45.00;;;;;;6272222;28;20127;-76
2021/06/03 09:39:19;;;;;;;4.38;2.17;;;30.10;46.20;;;;;;6271803;28;20133;-76
2021/06/03 09:42:21;;;;;;;3.28;1.90;;;30.10;46.30;;;;;;6272513;28;20464;-77
2021/06/03 09:45:23;;;;;;;3.08;2.42;;;30.00;46.10;;;;;;6272314;28;20095;-77
2021/06/03 09:48:40;;;;;;;4.72;2.28;;;30.00;46.40;;;;;;6271690;28;20167;-77
2021/06/03 09:51:44;;;;;;;7.63;2.78;;;30.00;46.20;;;;;;6271709;28;20556;-77
2021/06/03 09:54:49;;;;;;;3.42;1.70;;;30.00;46.40;;;;;;6272315;28;20045;-76
2021/06/03 09:57:55;;;;;;;4.53;1.77;;;30.00;46.80;;;;;;6272035;28;20059;-77
2021/06/03 10:00:56;;;;;;;4.57;2.58;;;30.00;46.80;;;;;;6271989;28;20048;-77
2021/06/03 10:03:59;;;;;;;3.25;2.28;;;30.10;46.30;;;;;;6271602;28;20052;-77
2021/06/03 10:07:03;;;;;;;2.25;2.05;;;30.10;46.10;;;;;;6271596;28;20575;-77
2021/06/03 10:10:07;;;;;;;1.70;1.60;;;30.10;46.40;;;;;;6271610;28;20128;-77
2021/06/03 10:13:10;;;;;;;4.80;1.80;;;30.40;45.80;;;;;;6271287;28;20108;-77
2021/06/03 10:16:30;;;;;;;3.03;2.40;;;30.70;45.80;;;;;;6271570;28;20068;-78
2021/06/03 10:19:32;;;;;;;3.28;2.35;;;30.70;45.30;;;;;;6271420;28;20052;-77
2021/06/03 10:22:35;;;;;;;2.13;1.92;;;30.60;45.60;;;;;;6271853;28;20200;-77
2021/06/03 10:25:38;;;;;;;2.92;2.42;;;30.70;44.80;;;;;;6271407;28;20128;-77
2021/06/03 10:28:39;;;;;;;4.80;2.17;;;30.80;45.00;;;;;;6271254;28;20128;-76
2021/06/03 10:31:40;;;;;;;3.80;1.52;;;30.90;45.00;;;;;;6271558;28;20592;-77
2021/06/03 10:34:45;;;;;;;9.55;2.53;;;31.00;45.10;;;;;;6272052;28;20057;-77
2021/06/03 10:37:47;;;;;;;4.68;2.13;;;31.00;44.50;;;;;;6270946;28;20051;-77
2021/06/03 10:40:51;;;;;;;2.20;1.60;;;31.20;44.40;;;;;;6271114;28;20092;-77
2021/06/03 10:43:53;;;;;;;3.22;1.63;;;31.30;43.80;;;;;;6270999;28;20126;-77
2021/06/03 10:46:55;;;;;;;5.80;2.33;;;31.30;44.50;;;;;;6271655;28;20060;-77
2021/06/03 10:50:00;;;;;;;3.97;2.78;;;31.20;44.20;;;;;;6271110;28;20094;-77
2021/06/03 10:53:07;;;;;;;4.68;2.33;;;31.30;44.50;;;;;;6271751;28;20052;-77
2021/06/03 10:56:11;;;;;;;3.83;2.55;;;31.50;44.10;;;;;;6272988;28;20041;-78
2021/06/03 10:59:30;;;;;;;2.55;2.17;;;31.50;44.30;;;;;;6271393;28;20048;-76
2021/06/03 11:02:49;;;;;;;5.35;2.30;;;31.90;43.80;;;;;;6271352;28;20045;-77
2021/06/03 11:06:01;;;;;;;3.75;2.53;;;32.20;43.30;;;;;;6270480;28;20392;-76
2021/06/03 11:09:06;;;;;;;5.45;2.38;;;32.20;42.80;;;;;;6270603;28;20136;-76
2021/06/03 11:12:22;;;;;;;4.15;2.90;;;31.60;43.60;;;;;;6271168;28;20060;-77
2021/06/03 11:15:23;;;;;;;3.88;2.20;;;31.00;44.60;;;;;;6246365;28;20120;-76
2021/06/03 11:19:11;;;;;;;2.72;1.92;;;31.10;44.60;;;;;;6246834;28;20128;-76
2021/06/03 11:22:24;;;;;;;3.97;2.22;;;31.50;44.80;;;;;;6271292;28;20079;-76
2021/06/03 11:25:36;;;;;;;1.88;1.58;;;32.00;43.10;;;;;;6273387;28;20083;-76
2021/06/03 11:28:38;;;;;;;1.75;1.65;;;32.10;42.60;;;;;;6274793;28;20068;-76
2021/06/03 11:31:41;;;;;;;3.13;2.10;;;31.90;42.70;;;;;;6275347;28;20068;-77
2021/06/03 11:34:44;;;;;;;3.38;1.70;;;32.00;42.40;;;;;;6275412;28;20127;-77
2021/06/03 11:37:50;;;;;;;1.95;1.48;;;32.00;41.40;;;;;;6275066;28;20502;-76
2021/06/03 11:40:52;;;;;;;2.80;1.63;;;32.00;41.50;;;;;;6274395;28;20510;-76
2021/06/03 11:44:07;;;;;;;4.97;2.22;;;32.30;41.00;;;;;;6274868;28;20123;-76
2021/06/03 11:47:08;;;;;;;2.13;1.65;;;32.50;41.70;;;;;;6274874;28;20059;-76
2021/06/03 11:50:36;;;;;;;2.58;2.38;;;32.30;41.40;;;;;;6274701;28;20429;-76
2021/06/03 11:53:52;;;;;;;1.87;1.77;;;32.20;41.60;;;;;;6274454;28;20075;-74
2021/06/03 11:57:12;;;;;;;2.53;2.17;;;32.40;41.60;;;;;;6274287;28;20049;-75
2021/06/03 12:00:14;;;;;;;2.22;2.00;;;32.50;41.50;;;;;;6274242;28;20503;-75
2021/06/03 12:03:28;;;;;;;3.88;2.15;;;32.70;40.80;;;;;;6274325;28;20507;-75
2021/06/03 12:06:38;;;;;;;5.38;2.80;;;32.60;41.80;;;;;;6274884;28;20057;-75
2021/06/03 12:09:49;;;;;;;2.22;2.03;;;32.50;41.30;;;;;;6274018;28;20049;-75
2021/06/03 12:12:51;;;;;;;5.15;2.00;;;32.40;41.10;;;;;;6274435;28;20052;-75
2021/06/03 12:15:53;;;;;;;1.80;1.67;;;32.40;40.70;;;;;;6274452;28;20472;-76
2021/06/03 12:18:54;;;;;;;4.43;2.42;;;32.40;41.30;;;;;;6274089;28;20215;-75
2021/06/03 12:21:58;;;;;;;2.70;1.60;;;32.70;41.30;;;;;;6274165;28;20045;-75
2021/06/03 12:25:01;;;;;;;2.35;2.13;;;32.90;41.70;;;;;;6273712;28;20167;-75
2021/06/03 12:28:03;;;;;;;3.35;2.20;;;32.90;41.40;;;;;;6273587;28;20045;-75
2021/06/03 12:31:04;;;;;;;1.35;1.20;;;32.40;41.50;;;;;;6273746;28;20581;-75
2021/06/03 12:34:06;;;;;;;1.75;1.45;;;32.30;41.10;;;;;;6274001;28;20495;-75
2021/06/03 12:37:25;;;;;;;3.10;2.75;;;32.50;41.10;;;;;;6274256;28;20096;-75
2021/06/03 12:40:28;;;;;;;3.13;1.80;;;32.70;41.20;;;;;;6273127;28;20045;-75
2021/06/03 12:43:35;;;;;;;2.90;1.77;;;32.60;40.60;;;;;;6274058;28;20086;-75
2021/06/03 12:46:39;;;;;;;1.90;1.63;;;32.30;40.60;;;;;;6273886;28;20056;-74
2021/06/03 12:49:40;;;;;;;3.55;1.77;;;32.40;40.30;;;;;;6279576;28;20097;-75
2021/06/03 12:52:45;;;;;;;7.68;1.75;;;32.60;40.70;;;;;;6272488;28;20056;-74
2021/06/03 12:55:48;;;;;;;4.07;2.33;;;33.00;41.10;;;;;;6273283;28;20037;-75
2021/06/03 12:58:50;;;;;;;2.45;1.92;;;33.30;41.10;;;;;;6272790;28;20045;-74
2021/06/03 13:01:54;;;;;;;2.85;1.40;;;33.00;41.10;;;;;;6272980;28;20159;-75
2021/06/03 13:04:56;;;;;;;1.63;1.52;;;32.60;40.50;;;;;;6272540;28;20136;-75
2021/06/03 13:07:57;;;;;;;6.45;3.17;;;32.40;40.90;;;;;;6272685;28;20123;-75
2021/06/03 13:11:00;;;;;;;2.78;2.03;;;32.30;41.90;;;;;;6272937;28;20140;-74
2021/06/03 13:14:13;;;;;;;2.70;1.88;;;32.30;41.90;;;;;;6286219;28;20076;-75
2021/06/03 13:17:16;;;;;;;3.63;2.05;;;32.20;42.00;;;;;;6297400;28;20128;-76
2021/06/03 13:20:20;;;;;;;2.85;2.13;;;32.10;41.80;;;;;;6296530;28;20076;-75
2021/06/03 13:23:23;;;;;;;4.70;1.52;;;32.10;41.50;;;;;;6297154;28;20060;-75
2021/06/03 13:26:26;;;;;;;1.95;1.48;;;31.90;41.20;;;;;;6297002;28;20409;-75
2021/06/03 13:29:28;;;;;;;2.53;2.33;;;31.50;41.00;;;;;;6296411;28;20079;-75
2021/06/03 13:32:31;;;;;;;3.25;2.60;;;31.30;42.20;;;;;;6296672;28;20068;-75
2021/06/03 13:35:33;;;;;;;2.33;1.90;;;31.10;42.60;;;;;;6296698;28;20127;-75
2021/06/03 13:38:42;;;;;;;5.85;2.67;;;31.00;42.90;;;;;;6296483;28;20044;-76
2021/06/03 13:41:46;;;;;;;4.78;2.75;;;30.80;43.70;;;;;;6296322;28;20117;-75
2021/06/03 13:44:54;;;;;;;2.30;1.70;;;30.70;44.00;;;;;;6296365;28;20410;-75
2021/06/03 13:47:56;;;;;;;2.53;1.80;;;30.80;43.60;;;;;;6295982;28;20049;-75
2021/06/03 13:50:59;;;;;;;2.42;1.75;;;30.60;43.20;;;;;;6287245;28;20048;-76
2021/06/03 13:54:00;;;;;;;6.00;2.25;;;30.60;43.60;;;;;;6247125;28;20149;-76
2021/06/03 13:57:03;;;;;;;2.67;1.88;;;30.50;44.50;;;;;;6246508;28;20053;-76
2021/06/03 14:00:05;;;;;;;4.22;2.28;;;30.50;44.00;;;;;;6246451;28;20079;-75
2021/06/03 14:03:10;;;;;;;4.63;2.33;;;30.60;44.70;;;;;;6246510;28;20531;-76
2021/06/03 14:06:13;;;;;;;3.55;3.25;;;30.60;44.70;;;;;;6247018;28;20080;-76
2021/06/03 14:09:28;;;;;;;2.90;2.17;;;30.50;45.00;;;;;;6252888;28;20087;-75
2021/06/03 14:12:39;;;;;;;4.00;2.45;;;30.50;44.70;;;;;;6260314;28;20701;-75
2021/06/03 14:15:41;;;;;;;5.50;2.75;;;30.40;46.20;;;;;;6271003;28;20044;-75
2021/06/03 14:18:42;;;;;;;2.63;2.30;;;30.30;47.10;;;;;;6271559;28;20087;-75
2021/06/03 14:21:57;;;;;;;2.90;2.38;;;30.50;47.00;;;;;;6271239;28;20080;-75
2021/06/03 14:25:01;;;;;;;15.27;3.00;;;30.90;45.60;;;;;;6287571;28;20076;-75
2021/06/03 14:28:11;;;;;;;7.45;2.13;;;31.30;44.70;;;;;;6287411;28;20053;-76
2021/06/03 14:31:12;;;;;;;2.47;2.28;;;31.40;43.80;;;;;;6271071;28;20175;-76
2021/06/03 14:34:27;;;;;;;2.35;2.20;;;31.60;42.90;;;;;;6271690;28;20091;-76
2021/06/03 14:37:29;;;;;;;3.65;2.25;;;32.10;41.10;;;;;;6270821;28;20098;-76
2021/06/03 14:40:33;;;;;;;2.45;2.25;;;32.30;41.00;;;;;;6270910;28;20561;-76
2021/06/03 14:43:43;;;;;;;2.45;1.80;;;32.20;41.30;;;;;;6270903;28;20090;-76
2021/06/03 14:46:44;;;;;;;5.03;1.35;;;32.10;41.80;;;;;;6271308;28;20081;-75
2021/06/03 14:49:45;;;;;;;2.97;2.10;;;32.00;41.10;;;;;;6270074;28;20076;-77
2021/06/03 14:52:50;;;;;;;3.35;1.60;;;31.70;40.80;;;;;;6270305;28;20049;-76
2021/06/03 14:55:53;;;;;;;3.30;2.58;;;31.40;41.70;;;;;;6264090;28;20041;-76
2021/06/03 14:58:56;;;;;;;2.85;2.05;;;31.10;42.70;;;;;;6247749;28;20077;-77
2021/06/03 15:01:57;;;;;;;4.25;1.88;;;30.90;43.50;;;;;;6275414;28;20691;-77
2021/06/03 15:04:59;;;;;;;2.92;2.05;;;30.80;42.80;;;;;;6275215;28;20079;-76
2021/06/03 15:08:04;;;;;;;3.85;2.20;;;30.70;43.00;;;;;;6275534;28;20056;-76
2021/06/03 15:11:06;;;;;;;2.92;2.50;;;30.60;43.50;;;;;;6275297;28;20131;-76
2021/06/03 15:14:09;;;;;;;9.10;3.42;;;30.60;44.00;;;;;;6276158;28;20056;-77
2021/06/03 15:17:11;;;;;;;3.40;2.17;;;30.70;44.10;;;;;;6275187;28;20471;-76
2021/06/03 15:20:15;;;;;;;2.83;2.30;;;30.80;44.40;;;;;;6275243;28;20128;-76
2021/06/03 15:23:19;;;;;;;2.42;1.92;;;30.90;43.90;;;;;;6275639;28;20048;-75
2021/06/03 15:26:20;;;;;;;3.25;2.13;;;31.00;43.60;;;;;;6277230;28;20523;-76
2021/06/03 15:29:23;;;;;;;5.65;2.10;;;31.20;43.30;;;;;;6275087;28;20128;-76
2021/06/03 15:32:24;;;;;;;4.15;2.17;;;31.20;44.10;;;;;;6275735;28;20132;-76
2021/06/03 15:35:28;;;;;;;4.93;2.60;;;31.30;45.20;;;;;;6275816;28;20115;-76
2021/06/03 15:38:30;;;;;;;3.10;2.22;;;31.30;45.00;;;;;;6276015;28;20100;-76
2021/06/03 15:41:31;;;;;;;2.50;2.30;;;31.20;45.00;;;;;;6274990;28;20079;-75
2021/06/03 15:44:34;;;;;;;3.60;2.75;;;31.20;45.00;;;;;;6274595;28;20514;-76
2021/06/03 15:47:38;;;;;;;3.35;2.08;;;31.30;45.10;;;;;;6274346;28;20483;-76
2021/06/03 15:50:40;;;;;;;3.53;2.78;;;31.30;44.20;;;;;;6274271;28;20148;-76
2021/06/03 15:53:45;;;;;;;4.18;2.92;;;31.30;45.50;;;;;;6256975;28;20129;-76
2021/06/03 15:56:46;;;;;;;4.40;1.80;;;31.40;44.60;;;;;;6257128;28;20149;-76